Time;durP1;ratioP1;P1;durP2;ratioP2;P2;SDS_P1;SDS_P2;PMS_P1;PMS_P2;Temp;Humidity;BMP_temperature;BMP_pressure;BME280_temperature;BME280_humidity;BME280_pressure;Samples;Min_cycle;Max_cycle;Signal;HPM_P1;HPM_P2
2022/01/19 16:08:32;;;;;;;5.38;2.80;;;13.80;78.60;;;;;;2294171;62;30212;-73
2022/01/19 16:11:00;;;;;;;6.47;2.97;;;13.80;77.90;;;;;;2291607;62;30167;-72
2022/01/19 16:13:25;;;;;;;4.82;3.00;;;13.90;78.80;;;;;;2291298;62;30174;-73
2022/01/19 16:15:51;;;;;;;3.35;2.75;;;14.00;79.50;;;;;;2291473;62;30133;-71
2022/01/19 16:18:19;;;;;;;4.05;2.72;;;14.20;80.10;;;;;;2291366;62;30532;-73
2022/01/19 16:20:46;;;;;;;3.58;2.80;;;14.30;80.40;;;;;;2291072;62;30134;-69
2022/01/19 16:26:12;;;;;;;4.38;2.90;;;14.50;81.00;;;;;;2291106;62;30116;-72
2022/01/19 16:28:40;;;;;;;2.60;2.40;;;14.60;81.10;;;;;;2284830;62;30920;-71
2022/01/19 16:31:06;;;;;;;11.13;2.55;;;14.60;81.10;;;;;;2290844;62;30252;-69
2022/01/19 16:33:34;;;;;;;3.13;2.10;;;14.70;81.10;;;;;;2283426;62;30277;-69
2022/01/19 16:36:04;;;;;;;6.10;2.30;;;14.80;81.10;;;;;;2291234;62;30221;-69
2022/01/19 16:38:30;;;;;;;3.90;2.08;;;14.80;80.90;;;;;;2282716;62;30618;-68
2022/01/19 16:40:56;;;;;;;4.60;2.00;;;14.90;81.00;;;;;;2283674;62;30226;-69
2022/01/19 16:43:22;;;;;;;3.05;1.98;;;14.90;80.90;;;;;;2291197;62;30239;-69
2022/01/19 16:45:48;;;;;;;2.90;2.03;;;15.00;80.90;;;;;;2291163;62;30235;-69
2022/01/19 16:48:20;;;;;;;2.33;1.75;;;15.10;80.70;;;;;;2283433;62;30113;-69
2022/01/19 16:50:48;;;;;;;3.65;1.77;;;15.10;80.60;;;;;;2277559;62;30316;-69
2022/01/19 16:53:17;;;;;;;3.30;1.80;;;15.20;80.40;;;;;;2283101;62;30832;-69
2022/01/19 16:55:44;;;;;;;4.30;2.20;;;15.20;80.20;;;;;;2277103;62;34139;-69
2022/01/19 16:58:13;;;;;;;2.75;1.90;;;15.30;80.10;;;;;;2282670;62;30507;-70
2022/01/19 17:00:39;;;;;;;3.75;1.77;;;15.30;79.80;;;;;;2282521;62;30150;-70
2022/01/19 17:03:05;;;;;;;3.75;1.90;;;15.40;79.80;;;;;;2282508;62;30019;-69
2022/01/19 17:05:31;;;;;;;3.08;1.80;;;15.40;79.60;;;;;;2282584;62;30255;-69
2022/01/19 17:07:57;;;;;;;2.97;1.88;;;15.40;79.40;;;;;;2282596;62;30045;-69
2022/01/19 17:10:24;;;;;;;3.25;1.75;;;15.40;79.30;;;;;;2275272;62;30257;-69
2022/01/19 17:12:54;;;;;;;4.45;2.00;;;15.40;79.10;;;;;;2275258;62;30263;-70
2022/01/19 17:15:39;;;;;;;3.42;1.70;;;15.50;79.00;;;;;;2282625;62;30550;-70
2022/01/19 17:18:05;;;;;;;4.47;1.85;;;15.50;78.80;;;;;;2274849;62;30404;-69
2022/01/19 17:20:37;;;;;;;5.10;1.73;;;15.60;78.70;;;;;;2276936;62;30390;-69
2022/01/19 17:23:07;;;;;;;4.07;1.73;;;15.60;78.50;;;;;;2277027;62;30140;-69
2022/01/19 17:25:33;;;;;;;2.25;1.50;;;15.70;78.30;;;;;;2269935;62;30939;-69
2022/01/19 17:27:59;;;;;;;4.25;1.63;;;15.70;78.10;;;;;;2269230;62;30075;-68
2022/01/19 17:30:25;;;;;;;4.07;1.77;;;15.80;78.00;;;;;;2264588;62;30410;-69
2022/01/19 17:32:51;;;;;;;2.95;1.80;;;15.90;77.90;;;;;;2277847;62;30194;-70
2022/01/19 17:35:17;;;;;;;2.67;1.58;;;16.00;77.70;;;;;;2285312;62;30973;-69
2022/01/19 17:37:43;;;;;;;3.05;1.80;;;16.00;77.50;;;;;;2285148;62;30072;-69
2022/01/19 17:40:09;;;;;;;3.08;2.05;;;16.00;77.30;;;;;;2284701;62;30270;-69
2022/01/19 17:42:35;;;;;;;2.55;1.70;;;16.10;77.20;;;;;;2277871;62;30440;-69
2022/01/19 17:45:06;;;;;;;3.95;1.67;;;16.10;77.00;;;;;;2281125;62;30932;-70
2022/01/19 17:47:48;;;;;;;2.67;1.42;;;16.10;76.90;;;;;;2277133;62;30130;-70
2022/01/19 17:53:02;;;;;;;2.75;1.63;;;16.10;76.60;;;;;;2277023;62;30492;-70
2022/01/19 17:55:29;;;;;;;5.75;2.10;;;16.20;76.50;;;;;;2269583;62;30398;-70
2022/01/19 17:57:55;;;;;;;3.05;1.80;;;16.20;76.50;;;;;;2269490;62;30756;-70
2022/01/19 18:00:21;;;;;;;3.90;1.67;;;16.20;76.50;;;;;;2277059;62;30186;-69
2022/01/19 18:02:47;;;;;;;3.63;2.08;;;16.20;76.50;;;;;;2277009;62;30299;-69
2022/01/19 18:05:13;;;;;;;4.20;2.10;;;16.20;76.40;;;;;;2275409;62;31918;-69
2022/01/19 18:07:39;;;;;;;3.50;2.00;;;16.20;76.30;;;;;;2272327;62;30076;-70
2022/01/19 18:10:05;;;;;;;4.55;2.03;;;16.20;76.30;;;;;;2276464;62;30277;-71
2022/01/19 18:12:31;;;;;;;4.45;2.25;;;16.30;76.40;;;;;;2276755;62;30189;-70
2022/01/19 18:14:59;;;;;;;10.60;2.75;;;16.30;76.40;;;;;;2276472;62;30379;-69
2022/01/19 18:17:26;;;;;;;5.82;1.90;;;16.30;76.50;;;;;;2276653;62;30147;-69
2022/01/19 18:19:52;;;;;;;4.68;2.30;;;16.30;76.30;;;;;;2276614;62;30439;-69
2022/01/19 18:22:18;;;;;;;8.40;2.72;;;16.30;76.10;;;;;;2276844;62;30031;-71
2022/01/19 18:24:44;;;;;;;4.75;2.00;;;16.40;76.10;;;;;;2276709;62;30938;-71
2022/01/19 18:27:10;;;;;;;5.50;2.17;;;16.50;76.00;;;;;;2276163;62;30117;-70
2022/01/19 18:29:37;;;;;;;4.70;2.22;;;16.60;76.00;;;;;;2269286;62;30223;-72
2022/01/19 18:32:05;;;;;;;2.72;1.77;;;16.70;75.80;;;;;;2262698;62;30015;-71
2022/01/19 18:34:31;;;;;;;5.13;2.20;;;16.80;75.70;;;;;;2276647;62;30239;-71
2022/01/19 18:36:58;;;;;;;2.95;1.60;;;16.90;75.50;;;;;;2276731;62;30184;-69
2022/01/19 18:39:24;;;;;;;3.67;1.70;;;17.10;75.30;;;;;;2269261;62;30358;-70
2022/01/19 18:41:50;;;;;;;2.83;1.80;;;17.20;75.10;;;;;;2276498;62;30354;-70
2022/01/19 18:44:16;;;;;;;4.60;1.95;;;17.30;74.90;;;;;;2273389;62;30265;-70
2022/01/19 18:46:42;;;;;;;3.03;1.80;;;17.30;74.70;;;;;;2275724;62;30540;-70
2022/01/19 18:49:08;;;;;;;4.70;2.03;;;17.30;74.50;;;;;;2276450;62;30115;-70
2022/01/19 18:51:34;;;;;;;6.65;1.90;;;17.40;74.40;;;;;;2276153;62;30326;-70
2022/01/19 18:54:02;;;;;;;4.30;2.03;;;17.40;74.20;;;;;;2275966;62;30100;-70
2022/01/19 18:56:28;;;;;;;4.45;2.22;;;17.40;74.10;;;;;;2275821;62;30838;-70
2022/01/19 18:58:54;;;;;;;2.88;1.90;;;17.40;74.00;;;;;;2276511;62;30136;-70
2022/01/19 19:01:22;;;;;;;3.03;1.73;;;17.50;73.80;;;;;;2276470;62;30021;-70
2022/01/19 19:03:48;;;;;;;3.70;2.10;;;17.50;73.80;;;;;;2276561;62;31138;-69
2022/01/19 19:06:23;;;;;;;3.25;1.70;;;17.50;73.60;;;;;;2276358;62;30230;-69
2022/01/19 19:08:55;;;;;;;4.38;1.90;;;17.50;73.40;;;;;;2276568;62;30340;-69
2022/01/19 19:11:57;;;;;;;4.38;1.83;;;17.50;73.40;;;;;;2276819;62;30232;-69
2022/01/19 19:14:23;;;;;;;;;;;17.60;73.40;;;;;;2276775;62;30378;-69
2022/01/19 19:16:54;;;;;;;3.10;1.85;;;17.50;72.00;;;;;;2276479;62;30815;-68
2022/01/19 19:19:24;;;;;;;3.42;1.63;;;17.50;73.10;;;;;;2276534;62;30044;-69
2022/01/19 19:21:50;;;;;;;1.92;1.60;;;17.60;73.00;;;;;;2276351;62;30410;-69
2022/01/19 19:24:24;;;;;;;3.67;1.73;;;17.60;72.90;;;;;;2276619;62;30066;-69
2022/01/19 19:26:54;;;;;;;3.85;1.90;;;17.60;72.80;;;;;;2276332;62;30305;-69
2022/01/19 19:29:20;;;;;;;3.28;1.80;;;17.60;72.70;;;;;;2275350;62;30143;-69
2022/01/19 19:31:49;;;;;;;3.28;1.90;;;17.50;73.40;;;;;;2276579;62;30109;-69
2022/01/19 19:34:17;;;;;;;3.20;1.53;;;17.50;72.70;;;;;;2276373;62;30196;-68
2022/01/19 19:36:43;;;;;;;4.15;1.90;;;17.50;72.70;;;;;;2276232;62;30250;-68
2022/01/19 19:39:15;;;;;;;4.20;1.83;;;17.50;72.70;;;;;;2276442;62;30133;-69
2022/01/19 19:41:43;;;;;;;4.60;1.90;;;17.50;72.60;;;;;;2276289;62;30115;-69
2022/01/19 19:44:09;;;;;;;4.32;2.00;;;17.50;72.60;;;;;;2276059;62;30090;-69
2022/01/19 19:46:39;;;;;;;5.15;1.80;;;17.50;72.60;;;;;;2276215;62;30460;-69
2022/01/19 19:49:06;;;;;;;5.60;2.53;;;17.50;72.60;;;;;;2275507;62;30037;-69
2022/01/19 19:51:34;;;;;;;4.57;2.10;;;17.40;72.50;;;;;;2275587;62;29994;-69
2022/01/19 19:54:00;;;;;;;3.38;2.03;;;17.40;72.40;;;;;;2276288;62;30036;-69
2022/01/19 19:56:30;;;;;;;4.35;1.90;;;17.40;72.50;;;;;;2276143;62;30525;-69
2022/01/19 19:58:56;;;;;;;4.47;1.92;;;17.40;72.40;;;;;;2275915;62;30264;-68
2022/01/19 20:01:33;;;;;;;5.28;2.50;;;17.40;72.40;;;;;;2276189;62;30088;-69
2022/01/19 20:04:05;;;;;;;6.32;2.25;;;17.40;72.20;;;;;;2275728;62;30042;-70
2022/01/19 20:06:37;;;;;;;3.08;1.83;;;17.40;72.30;;;;;;2276000;62;30314;-70
2022/01/19 20:09:03;;;;;;;;;;;17.40;72.30;;;;;;2276654;62;30066;-71
2022/01/19 20:11:40;;;;;;;3.35;1.95;;;17.40;71.80;;;;;;2275492;62;30198;-69
2022/01/19 20:14:09;;;;;;;6.38;2.47;;;17.40;72.40;;;;;;2275585;62;30865;-69
2022/01/19 20:16:35;;;;;;;4.55;1.83;;;17.40;72.30;;;;;;2275117;62;30320;-69
2022/01/19 20:19:03;;;;;;;4.13;2.20;;;17.40;72.20;;;;;;2275971;62;30180;-69
2022/01/19 20:21:32;;;;;;;3.58;2.03;;;17.40;72.10;;;;;;2275443;62;30212;-69
2022/01/19 20:24:00;;;;;;;6.32;2.40;;;17.50;72.10;;;;;;2275928;62;30376;-70
2022/01/19 20:26:29;;;;;;;4.35;2.30;;;17.50;72.00;;;;;;2275753;62;30320;-69
2022/01/19 20:28:55;;;;;;;4.28;1.88;;;17.50;71.90;;;;;;2276011;62;30270;-70
2022/01/19 20:31:26;;;;;;;5.22;2.67;;;17.50;71.90;;;;;;2276029;62;30686;-70
2022/01/19 20:33:55;;;;;;;5.63;2.38;;;17.50;71.80;;;;;;2275722;62;30293;-69
2022/01/19 20:36:21;;;;;;;5.72;2.13;;;17.50;71.60;;;;;;2275932;62;30226;-69
2022/01/19 20:38:53;;;;;;;3.22;1.85;;;17.50;71.70;;;;;;2275899;62;30317;-70
2022/01/19 20:41:19;;;;;;;4.82;2.15;;;17.50;71.60;;;;;;2275835;62;30233;-70
2022/01/19 20:43:51;;;;;;;3.00;2.03;;;17.50;71.60;;;;;;2275683;62;30371;-69
2022/01/19 20:46:20;;;;;;;4.15;1.85;;;17.50;71.50;;;;;;2275617;62;30149;-69
2022/01/19 20:48:53;;;;;;;4.60;2.28;;;17.50;71.60;;;;;;2275869;62;30265;-70
2022/01/19 20:51:22;;;;;;;4.63;2.03;;;17.50;71.50;;;;;;2275775;62;30267;-70
2022/01/19 20:53:48;;;;;;;4.97;2.40;;;17.50;71.40;;;;;;2276079;62;30123;-70
2022/01/19 20:56:15;;;;;;;3.67;1.98;;;17.50;71.50;;;;;;2277162;62;30236;-70
2022/01/19 20:58:41;;;;;;;4.95;2.05;;;17.50;71.40;;;;;;2277083;62;30209;-70
2022/01/19 21:01:07;;;;;;;4.30;1.95;;;17.50;71.40;;;;;;2277058;62;30085;-70
2022/01/19 21:03:35;;;;;;;4.15;1.85;;;17.50;71.40;;;;;;2277288;62;30246;-70
2022/01/19 21:06:04;;;;;;;2.40;1.75;;;17.50;71.30;;;;;;2276552;62;30212;-70
2022/01/19 21:08:33;;;;;;;4.50;2.15;;;17.50;71.30;;;;;;2276613;62;30154;-70
2022/01/19 21:11:14;;;;;;;2.75;1.90;;;17.50;71.20;;;;;;2276982;62;30305;-69
2022/01/19 21:13:49;;;;;;;3.80;1.70;;;17.50;71.20;;;;;;2276542;62;30826;-70
2022/01/19 21:16:21;;;;;;;5.55;2.13;;;17.50;71.10;;;;;;2276410;62;30419;-70
2022/01/19 21:18:51;;;;;;;3.83;1.90;;;17.50;71.10;;;;;;2276801;62;30116;-70
2022/01/19 21:21:19;;;;;;;3.95;1.70;;;17.50;71.20;;;;;;2277005;62;30194;-70
2022/01/19 21:23:49;;;;;;;3.40;1.77;;;17.50;71.10;;;;;;2274535;62;30291;-71
2022/01/19 21:26:29;;;;;;;3.92;1.75;;;17.50;71.10;;;;;;2275629;62;30598;-71
2022/01/19 21:28:59;;;;;;;2.80;1.80;;;17.50;71.10;;;;;;2275524;62;30686;-71
2022/01/19 21:31:25;;;;;;;3.45;1.50;;;17.50;71.10;;;;;;2272862;62;30177;-72
2022/01/19 21:34:02;;;;;;;3.42;1.70;;;17.50;71.10;;;;;;2275235;62;30356;-71
2022/01/19 21:36:50;;;;;;;3.95;2.00;;;17.50;71.00;;;;;;2275018;62;30552;-71
2022/01/19 21:39:19;;;;;;;6.22;2.20;;;17.50;71.10;;;;;;2275428;62;30180;-68
2022/01/19 21:42:08;;;;;;;4.13;2.03;;;17.50;71.00;;;;;;2275511;62;30173;-74
2022/01/19 21:44:39;;;;;;;4.40;1.90;;;17.50;71.00;;;;;;2269925;62;30295;-75
2022/01/19 21:47:08;;;;;;;4.28;1.90;;;17.50;70.70;;;;;;2275935;62;30611;-75
2022/01/19 21:49:47;;;;;;;2.80;1.67;;;17.50;70.70;;;;;;2262757;62;30121;-74
2022/01/19 21:52:15;;;;;;;4.45;1.80;;;17.50;70.60;;;;;;2276018;62;30407;-74
2022/01/19 21:54:42;;;;;;;3.75;1.70;;;17.50;70.40;;;;;;2268437;62;31195;-75
2022/01/19 21:57:11;;;;;;;5.47;2.20;;;17.50;70.50;;;;;;2275475;62;32498;-74
2022/01/19 21:59:45;;;;;;;4.10;1.90;;;17.50;70.40;;;;;;2268558;62;30158;-75
2022/01/19 22:02:13;;;;;;;4.93;1.90;;;17.50;70.40;;;;;;2275426;62;30384;-74
2022/01/19 22:04:41;;;;;;;3.80;2.17;;;17.50;70.30;;;;;;2275457;62;30132;-75
2022/01/19 22:07:13;;;;;;;;;;;17.50;70.30;;;;;;2275912;62;30271;-75
2022/01/19 22:09:41;;;;;;;3.60;1.88;;;17.50;70.20;;;;;;2275488;62;30296;-74
2022/01/19 22:12:10;;;;;;;4.40;2.00;;;17.50;70.30;;;;;;2275441;62;30465;-76
2022/01/19 22:14:48;;;;;;;5.63;1.92;;;17.50;70.30;;;;;;2268319;62;30308;-75
2022/01/19 22:17:19;;;;;;;4.30;2.00;;;17.50;70.30;;;;;;2275411;62;30126;-75
2022/01/19 22:19:45;;;;;;;5.00;2.22;;;17.50;70.30;;;;;;2267953;62;30263;-75
2022/01/19 22:22:28;;;;;;;7.05;2.40;;;17.60;70.20;;;;;;2275466;62;30722;-74
2022/01/19 22:25:02;;;;;;;4.85;2.20;;;17.60;70.00;;;;;;2275460;62;30240;-76
2022/01/19 22:27:41;;;;;;;6.55;2.80;;;17.50;70.00;;;;;;2275557;62;30320;-76
2022/01/19 22:30:10;;;;;;;9.63;3.45;;;17.50;70.30;;;;;;2268238;62;30190;-76
2022/01/19 22:32:43;;;;;;;6.90;2.90;;;17.50;70.30;;;;;;2262033;62;30790;-75
2022/01/19 22:35:11;;;;;;;4.72;2.67;;;17.50;70.40;;;;;;2273741;62;30910;-77
2022/01/19 22:37:37;;;;;;;6.07;2.55;;;17.50;70.40;;;;;;2275168;62;30164;-77
2022/01/19 22:40:07;;;;;;;5.43;2.60;;;17.50;70.40;;;;;;2261729;62;30292;-77
2022/01/19 22:42:41;;;;;;;6.25;2.67;;;17.50;70.40;;;;;;2268270;62;30190;-75
2022/01/19 22:45:20;;;;;;;5.25;2.50;;;17.50;70.40;;;;;;2273113;62;30516;-75
2022/01/19 22:47:50;;;;;;;6.38;2.67;;;17.50;70.50;;;;;;2275420;62;30211;-75
2022/01/19 22:50:16;;;;;;;7.88;2.92;;;17.50;70.50;;;;;;2275422;62;30319;-74
2022/01/19 22:52:44;;;;;;;4.72;2.25;;;17.50;70.50;;;;;;2275669;62;31308;-74
2022/01/19 22:55:13;;;;;;;3.97;1.90;;;17.50;70.50;;;;;;2268420;62;30365;-75
2022/01/19 22:57:45;;;;;;;4.40;2.20;;;17.50;70.50;;;;;;2274850;62;30746;-74
2022/01/19 23:00:21;;;;;;;5.35;2.40;;;17.40;70.50;;;;;;2275221;62;30630;-74
2022/01/19 23:02:50;;;;;;;3.65;2.10;;;17.40;70.50;;;;;;2274977;62;30088;-74
2022/01/19 23:05:19;;;;;;;4.03;2.22;;;17.40;70.50;;;;;;2275324;62;31039;-75
2022/01/19 23:07:45;;;;;;;4.95;2.38;;;17.40;70.60;;;;;;2278689;62;30296;-76
2022/01/19 23:10:11;;;;;;;6.57;2.45;;;17.40;70.60;;;;;;2272801;62;30817;-77
2022/01/19 23:12:38;;;;;;;3.90;1.85;;;17.40;70.60;;;;;;2271713;62;30123;-76
2022/01/19 23:15:08;;;;;;;5.20;2.80;;;17.40;70.70;;;;;;2277253;62;30211;-76
2022/01/19 23:17:34;;;;;;;4.70;2.05;;;17.30;70.60;;;;;;2275018;62;30498;-75
2022/01/19 23:20:00;;;;;;;4.05;2.40;;;17.30;70.70;;;;;;2268364;62;30825;-77
